Time;durP1;ratioP1;P1;durP2;ratioP2;P2;SDS_P1;SDS_P2;PMS_P1;PMS_P2;Temp;Humidity;BMP_temperature;BMP_pressure;BME280_temperature;BME280_humidity;BME280_pressure;Samples;Min_cycle;Max_cycle;Signal;HPM_P1;HPM_P2
2022/08/15 00:00:54;;;;;;;20.52;15.00;;;;;;;20.05;97.47;98985.81;5086378;28;20048;-72
2022/08/15 00:03:27;;;;;;;19.25;14.85;;;;;;;20.07;96.90;98986.41;5086084;28;20037;-72
2022/08/15 00:05:53;;;;;;;18.40;15.00;;;;;;;20.09;95.01;98987.78;5085421;28;20150;-72
2022/08/15 00:08:20;;;;;;;18.23;15.52;;;;;;;20.05;94.91;98980.44;5086490;28;20051;-72
2022/08/15 00:10:46;;;;;;;20.85;16.10;;;;;;;20.01;95.14;98982.00;5085597;28;20035;-72
2022/08/15 00:13:17;;;;;;;18.63;15.85;;;;;;;20.02;94.75;98987.13;5086874;28;20026;-72
2022/08/15 00:15:45;;;;;;;20.90;16.27;;;;;;;20.01;94.41;98992.75;5085472;28;20040;-73
2022/08/15 00:18:11;;;;;;;21.27;16.95;;;;;;;19.91;94.18;98989.88;5083605;28;20316;-73
2022/08/15 00:20:37;;;;;;;21.63;16.58;;;;;;;19.95;94.09;98999.06;5084786;28;20034;-72
2022/08/15 00:23:04;;;;;;;23.83;17.42;;;;;;;19.97;93.26;98996.97;5086231;28;20032;-72
2022/08/15 00:25:29;;;;;;;20.23;16.77;;;;;;;19.94;93.53;98995.56;5085188;28;20043;-72
2022/08/15 00:27:55;;;;;;;23.80;18.67;;;;;;;19.93;93.70;98991.25;5084790;28;20032;-72
2022/08/15 00:30:22;;;;;;;22.55;17.13;;;;;;;19.93;93.65;98993.13;5085681;28;20040;-73
2022/08/15 00:32:55;;;;;;;19.92;16.05;;;;;;;19.89;94.31;98981.22;5082453;28;20047;-72
2022/08/15 00:35:36;;;;;;;20.15;16.40;;;;;;;19.88;94.13;98991.16;5083859;28;20040;-72
2022/08/15 00:38:19;;;;;;;21.33;16.55;;;;;;;19.95;93.39;98991.84;5085615;28;20198;-72
2022/08/15 00:43:37;;;;;;;22.55;16.15;;;;;;;19.88;91.52;98983.09;5085549;28;20097;-72
2022/08/15 00:46:05;;;;;;;18.23;15.15;;;;;;;19.84;92.31;98987.31;5085079;28;20037;-72
2022/08/15 00:48:43;;;;;;;23.63;17.33;;;;;;;19.84;92.64;98983.81;5085445;28;20032;-73
2022/08/15 00:51:30;;;;;;;20.23;15.85;;;;;;;19.87;93.24;98988.72;5085780;28;20044;-72
2022/08/15 00:54:02;;;;;;;14.50;12.10;;;;;;;19.78;91.31;98999.03;5089854;28;20253;-72
2022/08/15 00:56:33;;;;;;;18.88;15.55;;;;;;;19.60;92.11;99000.00;5085802;28;20155;-72
2022/08/15 00:58:59;;;;;;;19.90;16.00;;;;;;;19.51;93.24;99001.41;5099203;28;20325;-72
2022/08/15 01:01:25;;;;;;;20.75;16.05;;;;;;;19.58;94.18;99001.28;5101863;28;20095;-72
2022/08/15 01:03:52;;;;;;;19.27;15.73;;;;;;;19.66;93.24;99012.47;5087139;28;20029;-72
2022/08/15 01:06:20;;;;;;;20.55;15.73;;;;;;;19.66;93.67;99012.47;5085030;28;20028;-72
2022/08/15 01:08:47;;;;;;;24.90;16.88;;;;;;;19.72;94.42;99010.69;5083004;28;20023;-73
2022/08/15 01:11:31;;;;;;;20.65;15.48;;;;;;;19.74;94.11;99014.78;5084273;28;20146;-72
2022/08/15 01:13:59;;;;;;;20.67;15.82;;;;;;;19.41;93.71;98959.06;5083319;28;20222;-72
2022/08/15 01:16:27;;;;;;;18.80;14.45;;;;;;;19.76;93.36;99006.47;5085321;28;20393;-72
2022/08/15 01:18:53;;;;;;;19.63;15.07;;;;;;;19.79;92.70;99015.97;5083373;28;20092;-73
2022/08/15 01:21:36;;;;;;;20.60;14.85;;;;;;;19.87;93.07;99019.09;5081446;28;20032;-72
2022/08/15 01:24:07;;;;;;;21.50;16.40;;;;;;;19.86;92.63;99008.59;5083567;28;20039;-72
2022/08/15 01:26:33;;;;;;;20.45;15.30;;;;;;;19.83;92.79;99009.06;5083987;28;20028;-72
2022/08/15 01:29:00;;;;;;;18.05;14.32;;;;;;;19.81;92.55;99011.16;5085015;28;20024;-72
2022/08/15 01:31:26;;;;;;;19.55;12.43;;;;;;;19.72;92.49;98999.97;5081952;28;20043;-72
2022/08/15 01:33:57;;;;;;;15.30;12.75;;;;;;;19.84;91.70;99019.56;5080983;28;20033;-73
2022/08/15 01:36:24;;;;;;;22.35;14.20;;;;;;;19.80;91.45;99017.59;5093468;28;20037;-72
2022/08/15 01:39:16;;;;;;;15.90;13.10;;;;;;;19.65;91.20;99018.09;5083609;28;20040;-72
2022/08/15 01:41:59;;;;;;;17.77;13.15;;;;;;;19.56;92.63;99019.50;5076155;28;20138;-73
2022/08/15 01:44:28;;;;;;;20.70;13.63;;;;;;;19.49;92.96;99016.13;5083946;28;20028;-72
2022/08/15 01:47:28;;;;;;;16.35;13.05;;;;;;;19.49;93.45;99008.88;5097944;28;20046;-72
2022/08/15 01:50:07;;;;;;;14.98;12.75;;;;;;;19.49;93.85;99011.56;5086601;28;20052;-73
2022/08/15 01:52:53;;;;;;;15.10;12.85;;;;;;;19.52;93.73;99002.22;5083783;28;20028;-72
2022/08/15 01:55:26;;;;;;;18.73;13.40;;;;;;;19.60;93.64;99010.75;5082854;28;20040;-72
2022/08/15 01:57:51;;;;;;;15.82;12.50;;;;;;;19.56;93.16;99011.47;5084245;28;20060;-72
2022/08/15 02:00:17;;;;;;;15.02;12.50;;;;;;;19.50;93.09;99005.13;5085531;28;20497;-73
2022/08/15 02:02:43;;;;;;;17.45;13.25;;;;;;;19.50;93.53;99007.81;5084843;28;20031;-72
2022/08/15 02:05:09;;;;;;;16.92;13.45;;;;;;;19.54;93.28;99016.25;5084039;28;20055;-72
2022/08/15 02:07:34;;;;;;;17.00;14.07;;;;;;;19.50;93.56;99021.25;5083614;28;20241;-72
2022/08/15 02:10:00;;;;;;;20.58;14.80;;;;;;;19.35;94.44;99019.06;5083763;28;20036;-72
2022/08/15 02:12:29;;;;;;;19.65;13.00;;;;;;;19.39;92.75;99022.91;5083824;28;20528;-72
2022/08/15 02:14:57;;;;;;;19.60;13.68;;;;;;;19.19;90.65;99005.56;5082697;28;20135;-72
2022/08/15 02:17:22;;;;;;;20.17;13.10;;;;;;;19.41;90.44;99036.09;5085825;28;20028;-73
2022/08/15 02:19:49;;;;;;;20.13;15.02;;;;;;;19.36;91.05;99028.75;5080975;28;20063;-72
2022/08/15 02:22:17;;;;;;;21.90;14.40;;;;;;;19.40;91.33;99029.09;5083096;28;20377;-72
2022/08/15 02:24:43;;;;;;;17.15;13.57;;;;;;;19.43;91.85;99025.94;5082754;28;20325;-72
2022/08/15 02:27:09;;;;;;;18.25;13.48;;;;;;;19.46;91.64;99022.78;5084009;28;20248;-72
2022/08/15 02:29:35;;;;;;;19.00;13.65;;;;;;;19.48;91.93;99025.22;5085380;28;20187;-72
2022/08/15 02:32:07;;;;;;;20.75;12.63;;;;;;;19.53;91.38;99030.72;5084258;28;20035;-72
2022/08/15 02:34:34;;;;;;;18.95;13.25;;;;;;;19.44;91.17;99023.00;5085711;28;20076;-72
2022/08/15 02:37:04;;;;;;;15.90;12.80;;;;;;;19.50;90.98;99023.94;5083923;28;20384;-72
2022/08/15 02:39:29;;;;;;;18.00;14.38;;;;;;;19.45;91.88;99021.16;5094161;28;20016;-72
2022/08/15 02:41:55;;;;;;;19.88;15.02;;;;;;;19.50;92.42;99023.94;5083940;28;20237;-72
2022/08/15 02:44:21;;;;;;;14.95;12.02;;;;;;;19.53;92.09;99025.34;5083274;28;20031;-72
2022/08/15 02:46:49;;;;;;;13.93;10.20;;;;;;;19.44;90.47;99014.97;5082651;28;20081;-72
2022/08/15 02:49:15;;;;;;;14.15;11.10;;;;;;;19.22;89.53;99005.91;5087206;28;20052;-72
2022/08/15 02:51:41;;;;;;;16.85;12.25;;;;;;;19.23;90.47;99006.72;5084617;28;20150;-72
2022/08/15 02:54:09;;;;;;;15.95;13.02;;;;;;;19.17;91.48;99005.78;5084372;28;20078;-72
2022/08/15 02:56:35;;;;;;;16.00;12.60;;;;;;;19.13;91.95;99002.75;5087080;28;20055;-72
2022/08/15 02:59:02;;;;;;;18.48;12.23;;;;;;;19.25;91.51;99012.66;5088234;28;20036;-72
2022/08/15 03:01:29;;;;;;;18.85;11.02;;;;;;;19.22;90.76;99007.75;5087945;28;20021;-72
2022/08/15 03:03:56;;;;;;;14.40;11.40;;;;;;;19.30;90.08;99018.13;5084933;28;20146;-72
2022/08/15 03:06:25;;;;;;;16.98;12.23;;;;;;;19.26;90.39;99017.78;5084178;28;20051;-72
2022/08/15 03:08:52;;;;;;;15.55;12.02;;;;;;;19.30;90.40;99018.97;5085448;28;20032;-72
2022/08/15 03:11:18;;;;;;;14.18;11.95;;;;;;;19.25;89.84;99020.72;5086751;28;20096;-72
2022/08/15 03:13:44;;;;;;;15.43;11.55;;;;;;;19.16;90.12;99020.25;5087035;28;20083;-72
2022/08/15 03:16:11;;;;;;;14.63;11.55;;;;;;;19.02;89.66;99017.00;5086911;28;20048;-72
2022/08/15 03:18:41;;;;;;;21.80;12.60;;;;;;;19.03;89.83;99018.63;5086369;28;20098;-72
2022/08/15 03:21:10;;;;;;;17.20;12.95;;;;;;;18.87;91.06;99008.63;5087194;28;20036;-72
2022/08/15 03:23:36;;;;;;;15.55;11.90;;;;;;;18.74;91.39;99009.66;5086254;28;20051;-73
2022/08/15 03:26:03;;;;;;;17.55;11.52;;;;;;;18.73;91.52;99016.06;5085105;28;20420;-72
2022/08/15 03:28:31;;;;;;;17.05;11.57;;;;;;;18.73;90.78;99007.22;5084678;28;20281;-72
2022/08/15 03:31:03;;;;;;;16.42;10.55;;;;;;;18.79;90.78;99007.09;5084028;28;20048;-72
2022/08/15 03:33:31;;;;;;;18.23;12.30;;;;;;;18.93;90.15;99010.38;5084534;28;20040;-72
2022/08/15 03:35:57;;;;;;;13.80;10.68;;;;;;;18.79;90.10;99019.69;5085676;28;20146;-73
2022/08/15 03:38:22;;;;;;;17.60;12.57;;;;;;;18.67;90.66;99013.47;5087319;28;20042;-72
2022/08/15 03:40:50;;;;;;;21.90;11.05;;;;;;;18.65;90.66;99016.38;5087388;28;20266;-72
2022/08/15 03:43:20;;;;;;;17.42;13.73;;;;;;;18.45;91.93;99014.00;5088946;28;20032;-72
2022/08/15 03:46:11;;;;;;;15.70;11.68;;;;;;;18.48;92.26;99023.44;5087102;28;20542;-72
2022/08/15 03:48:41;;;;;;;13.65;11.68;;;;;;;18.57;92.29;99014.00;5089187;28;20328;-72
2022/08/15 03:51:08;;;;;;;16.60;12.43;;;;;;;18.71;91.39;99023.50;5084979;28;20106;-72
2022/08/15 03:53:44;;;;;;;16.98;13.25;;;;;;;18.78;91.17;99026.91;5085956;28;20032;-72
2022/08/15 03:56:13;;;;;;;18.42;12.98;;;;;;;18.80;90.33;99021.31;5085777;28;20033;-72
2022/08/15 03:58:40;;;;;;;17.30;13.65;;;;;;;18.65;92.07;99028.97;5086397;28;20032;-72
2022/08/15 04:01:11;;;;;;;19.67;13.10;;;;;;;18.54;92.69;99040.47;5085333;28;20118;-72
2022/08/15 04:03:37;;;;;;;18.88;13.95;;;;;;;18.48;92.74;99034.16;5086059;28;20039;-72
2022/08/15 04:06:09;;;;;;;19.58;13.93;;;;;;;18.49;92.68;99033.13;5085977;28;20052;-72
2022/08/15 04:08:35;;;;;;;17.90;13.57;;;;;;;18.49;93.86;99043.84;5084974;28;20222;-73
2022/08/15 04:11:04;;;;;;;16.45;12.55;;;;;;;18.65;93.54;99037.03;5082834;28;20230;-72
2022/08/15 04:13:29;;;;;;;20.42;13.75;;;;;;;18.87;93.13;99038.13;5083029;28;20074;-72
2022/08/15 04:15:58;;;;;;;20.73;13.23;;;;;;;18.98;92.36;99031.94;5085602;28;20036;-72
2022/08/15 04:18:24;;;;;;;18.05;13.38;;;;;;;19.00;93.18;99040.56;5086397;28;20040;-72
2022/08/15 04:20:53;;;;;;;17.25;13.55;;;;;;;19.09;93.41;99033.81;5085556;28;20109;-72
2022/08/15 04:23:18;;;;;;;22.00;14.32;;;;;;;19.23;93.09;99050.47;5087076;28;20085;-72
2022/08/15 04:25:44;;;;;;;24.70;14.75;;;;;;;19.26;93.33;99044.63;5085672;28;20036;-72
2022/08/15 04:28:14;;;;;;;24.40;15.77;;;;;;;19.42;93.20;99046.59;5084961;28;20033;-72
2022/08/15 04:30:41;;;;;;;20.48;16.30;;;;;;;19.31;94.00;99033.19;5085237;28;20067;-73
2022/08/15 04:33:14;;;;;;;27.35;17.10;;;;;;;19.41;94.55;99047.66;5085506;28;20021;-72
2022/08/15 04:35:43;;;;;;;23.85;17.08;;;;;;;19.51;94.24;99048.91;5085132;28;20401;-72
2022/08/15 04:38:09;;;;;;;23.70;17.80;;;;;;;19.52;94.61;99043.34;5088564;28;20099;-72
2022/08/15 04:40:35;;;;;;;24.85;17.02;;;;;;;19.41;95.55;99038.78;5085976;28;20177;-73
2022/08/15 04:43:01;;;;;;;22.45;16.65;;;;;;;19.40;94.26;99040.66;5085050;28;20051;-72
2022/08/15 04:45:30;;;;;;;25.13;16.73;;;;;;;19.33;94.89;99045.31;5085191;28;20035;-72
2022/08/15 04:47:56;;;;;;;24.67;17.45;;;;;;;19.36;95.11;99058.28;5085432;28;20040;-73
2022/08/15 04:50:21;;;;;;;24.75;17.73;;;;;;;19.26;95.57;99054.56;5084570;28;20077;-72
2022/08/15 04:52:51;;;;;;;24.15;17.40;;;;;;;19.38;95.54;99053.50;5086138;28;20338;-72
2022/08/15 04:55:19;;;;;;;23.17;17.85;;;;;;;19.41;95.55;99063.75;5086880;28;20032;-73
2022/08/15 04:57:45;;;;;;;28.02;20.63;;;;;;;19.32;96.04;99051.75;5084461;28;20035;-72
2022/08/15 05:00:13;;;;;;;26.98;19.42;;;;;;;19.37;96.20;99053.72;5085676;28;20039;-72
2022/08/15 05:02:39;;;;;;;27.83;19.55;;;;;;;19.59;96.00;99046.72;5081712;28;20036;-73
2022/08/15 05:05:07;;;;;;;23.55;17.95;;;;;;;19.74;95.03;99057.75;5082209;28;20331;-72
2022/08/15 05:07:34;;;;;;;25.17;18.83;;;;;;;20.01;95.07;99059.91;5084488;28;20267;-73
2022/08/15 05:10:01;;;;;;;29.92;19.52;;;;;;;20.12;94.04;99055.56;5112619;28;20040;-72
2022/08/15 05:12:28;;;;;;;28.08;18.83;;;;;;;20.21;92.78;99048.72;5096016;28;20232;-73
2022/08/15 05:14:56;;;;;;;28.13;19.92;;;;;;;20.03;92.85;99055.94;5090705;28;20290;-72
2022/08/15 05:17:21;;;;;;;35.67;22.15;;;;;;;20.17;93.12;99048.41;5088547;28;20033;-73
2022/08/15 05:19:47;;;;;;;31.35;21.55;;;;;;;20.22;93.67;99047.69;5093750;28;20036;-73
2022/08/15 05:22:12;;;;;;;28.73;20.67;;;;;;;20.52;92.96;99050.09;5081857;28;20032;-72
2022/08/15 05:24:38;;;;;;;28.60;19.48;;;;;;;20.64;92.23;99050.84;5081109;28;20028;-73
2022/08/15 05:27:05;;;;;;;25.98;19.00;;;;;;;20.58;92.59;99049.94;5085345;28;20217;-73
2022/08/15 05:29:31;;;;;;;25.98;19.08;;;;;;;21.09;91.52;99053.47;5084234;28;20028;-72
2022/08/15 05:31:58;;;;;;;30.45;23.25;;;;;;;20.94;93.18;99045.16;5085390;28;20272;-73
2022/08/15 05:34:23;;;;;;;38.72;28.67;;;;;;;21.18;92.38;99037.69;5087051;28;20071;-73
2022/08/15 05:36:49;;;;;;;28.55;20.20;;;;;;;21.48;91.84;99046.22;5092961;28;20036;-72
2022/08/15 05:39:24;;;;;;;27.35;18.88;;;;;;;21.39;91.71;99047.72;5096598;28;20135;-73
2022/08/15 05:42:14;;;;;;;28.05;19.23;;;;;;;21.52;91.66;99043.84;5084826;28;20048;-72
2022/08/15 05:44:54;;;;;;;27.60;19.25;;;;;;;21.37;91.99;99044.47;5083915;28;20032;-72
2022/08/15 05:47:32;;;;;;;28.88;21.25;;;;;;;21.17;94.25;99054.91;5087195;28;20024;-72
2022/08/15 05:50:14;;;;;;;32.20;24.73;;;;;;;21.45;94.91;99054.81;5084127;28;20145;-72
2022/08/15 05:53:00;;;;;;;24.95;18.33;;;;;;;21.57;92.87;99066.28;5084086;28;20371;-72
2022/08/15 05:55:52;;;;;;;29.90;20.33;;;;;;;21.76;93.49;99065.97;5080815;28;20045;-72
2022/08/15 05:58:21;;;;;;;26.95;18.58;;;;;;;21.80;92.59;99073.28;5082628;28;20035;-72
2022/08/15 06:00:53;;;;;;;26.88;18.65;;;;;;;22.10;91.80;99066.69;5083936;28;20044;-73
2022/08/15 06:03:26;;;;;;;29.50;18.83;;;;;;;22.20;93.04;99081.09;5083052;28;20070;-73
2022/08/15 06:05:56;;;;;;;31.33;18.88;;;;;;;22.47;90.23;99078.38;5083557;28;20395;-73
2022/08/15 06:08:26;;;;;;;32.88;18.05;;;;;;;22.83;89.17;99079.53;5084013;28;20035;-73
2022/08/15 06:11:03;;;;;;;23.08;16.55;;;;;;;23.01;87.28;99066.75;5092799;28;20031;-73
2022/08/15 06:13:45;;;;;;;24.45;16.50;;;;;;;23.09;86.44;99064.38;5082680;28;20100;-74
2022/08/15 06:16:16;;;;;;;20.20;15.77;;;;;;;23.33;85.00;99066.69;5097589;28;20032;-73
2022/08/15 06:18:44;;;;;;;22.58;17.58;;;;;;;23.32;85.58;99060.47;5101646;28;20083;-73
2022/08/15 06:21:20;;;;;;;20.73;13.50;;;;;;;23.18;83.10;99067.41;5084034;28;20032;-73
2022/08/15 06:24:10;;;;;;;19.70;13.70;;;;;;;23.73;83.16;99068.78;5082998;28;20262;-73
2022/08/15 06:27:06;;;;;;;19.27;14.93;;;;;;;23.90;81.02;99069.41;5083880;28;20568;-73
2022/08/15 06:29:43;;;;;;;21.52;16.02;;;;;;;23.91;82.73;99070.22;5086677;28;20033;-73
2022/08/15 06:32:24;;;;;;;17.77;12.55;;;;;;;24.19;80.17;99067.91;5083923;28;20025;-73
2022/08/15 06:34:57;;;;;;;14.77;11.10;;;;;;;24.24;80.06;99031.09;5085645;28;20039;-73
2022/08/15 06:37:47;;;;;;;12.02;10.48;;;;;;;24.95;77.59;99075.28;5086109;28;20089;-73
2022/08/15 06:40:18;;;;;;;14.60;9.75;;;;;;;24.84;75.84;99074.47;5081012;28;20322;-73
2022/08/15 06:42:45;;;;;;;12.00;10.38;;;;;;;24.92;76.00;99081.25;5092777;28;20035;-73
2022/08/15 06:45:22;;;;;;;12.55;10.13;;;;;;;25.21;76.90;99084.25;5101540;28;20443;-73
2022/08/15 06:47:51;;;;;;;12.95;9.00;;;;;;;25.26;75.06;99081.53;5101512;28;20040;-73
2022/08/15 06:50:21;;;;;;;12.32;9.90;;;;;;;25.37;74.89;99079.63;5101039;28;20032;-73
2022/08/15 06:52:53;;;;;;;11.32;8.95;;;;;;;25.40;74.43;99085.28;5100933;28;20032;-73
2022/08/15 06:55:22;;;;;;;14.68;9.13;;;;;;;25.25;73.35;99033.84;5098845;28;20073;-73
2022/08/15 06:58:04;;;;;;;13.50;8.93;;;;;;;25.44;73.80;99090.97;5099489;28;20341;-73
2022/08/15 07:00:45;;;;;;;11.05;9.88;;;;;;;25.04;75.76;99086.44;5100482;28;20052;-73
2022/08/15 07:03:35;;;;;;;10.70;8.30;;;;;;;25.34;74.74;99089.09;5100530;28;20136;-73
2022/08/15 07:06:02;;;;;;;9.98;8.55;;;;;;;25.43;75.17;99087.44;5115919;28;20037;-73
2022/08/15 07:08:54;;;;;;;8.65;6.85;;;;;;;25.63;72.50;99077.63;5099628;28;20237;-73
2022/08/15 07:11:38;;;;;;;9.93;7.18;;;;;;;25.91;72.73;99096.00;5100246;28;20032;-73
2022/08/15 07:14:07;;;;;;;7.45;6.55;;;;;;;25.95;70.74;99098.97;5100628;28;20040;-73
2022/08/15 07:16:43;;;;;;;10.80;7.25;;;;;;;26.05;72.12;99093.53;5101042;28;20056;-73
2022/08/15 07:19:10;;;;;;;14.40;7.28;;;;;;;25.74;71.22;99095.53;5099980;28;20028;-73
2022/08/15 07:21:36;;;;;;;13.10;7.88;;;;;;;25.63;72.83;99092.00;5101070;28;20036;-73
2022/08/15 07:24:09;;;;;;;10.02;8.32;;;;;;;25.99;71.95;99094.59;5100341;28;20314;-73
2022/08/15 07:26:50;;;;;;;10.38;7.43;;;;;;;25.94;71.19;99083.78;5099409;28;20194;-73
2022/08/15 07:29:32;;;;;;;8.05;7.03;;;;;;;26.19;70.90;99089.09;5100564;28;20086;-73
2022/08/15 07:32:09;;;;;;;10.73;7.63;;;;;;;26.49;69.79;99073.75;5114602;28;20028;-73
2022/08/15 07:34:37;;;;;;;10.52;7.90;;;;;;;26.84;67.45;99080.81;5100545;28;20039;-73
2022/08/15 07:37:06;;;;;;;10.38;7.28;;;;;;;26.99;67.11;99084.22;5104171;28;20337;-73
2022/08/15 07:39:43;;;;;;;14.75;8.02;;;;;;;27.45;66.92;99091.16;5104246;28;20032;-73
2022/08/15 07:42:19;;;;;;;9.23;7.65;;;;;;;27.65;65.46;99090.94;5103739;28;20028;-73
2022/08/15 07:44:58;;;;;;;10.93;8.13;;;;;;;27.62;64.92;99083.38;5103798;28;20384;-73
2022/08/15 07:47:33;;;;;;;9.68;7.70;;;;;;;27.28;65.29;99092.41;5103696;28;20091;-73
2022/08/15 07:50:04;;;;;;;10.23;9.07;;;;;;;26.68;66.37;99097.22;5103565;28;20035;-73
2022/08/15 07:52:30;;;;;;;12.45;10.02;;;;;;;26.02;67.64;99096.78;5103767;28;20326;-73
2022/08/15 07:55:12;;;;;;;11.80;8.68;;;;;;;25.75;69.60;99092.53;5103232;28;20036;-73
2022/08/15 07:57:41;;;;;;;14.95;8.65;;;;;;;25.82;69.94;99088.72;5103039;28;20028;-73
2022/08/15 08:00:09;;;;;;;10.38;8.07;;;;;;;25.89;69.19;99087.31;5103198;28;20032;-73
2022/08/15 08:02:43;;;;;;;9.32;8.02;;;;;;;25.95;68.37;99079.97;5118178;28;20336;-73
2022/08/15 08:05:11;;;;;;;11.25;7.55;;;;;;;25.91;69.55;99078.91;5102412;28;20032;-73
2022/08/15 08:07:40;;;;;;;10.60;7.88;;;;;;;25.84;68.42;99083.81;5103662;28;20035;-73
2022/08/15 08:10:24;;;;;;;10.27;8.45;;;;;;;26.03;68.04;99082.13;5103310;28;20036;-73
2022/08/15 08:13:04;;;;;;;9.35;8.20;;;;;;;26.00;66.90;99080.75;5103360;28;20032;-73
2022/08/15 08:15:54;;;;;;;10.95;8.02;;;;;;;26.24;69.08;99070.06;5103137;28;20036;-74
2022/08/15 08:18:48;;;;;;;10.60;7.95;;;;;;;26.32;67.54;99080.38;5102690;28;20031;-74
2022/08/15 08:21:25;;;;;;;10.23;9.15;;;;;;;26.37;67.25;99077.63;5087889;28;20059;-74
2022/08/15 08:23:54;;;;;;;10.63;9.35;;;;;;;26.32;67.22;99072.22;5118997;28;20031;-73
2022/08/15 08:26:26;;;;;;;9.48;7.85;;;;;;;26.43;66.24;99061.31;5102957;28;20266;-73
2022/08/15 08:29:19;;;;;;;10.10;7.60;;;;;;;26.38;66.02;99056.72;5102382;28;20031;-73
2022/08/15 08:32:00;;;;;;;11.45;8.55;;;;;;;26.32;65.43;99071.38;5101882;28;20067;-73
2022/08/15 08:34:36;;;;;;;14.93;10.45;;;;;;;26.15;66.71;99065.53;5102197;28;20028;-73
2022/08/15 08:37:04;;;;;;;20.05;16.38;;;;;;;26.27;66.59;99063.28;5103095;28;20042;-73
2022/08/15 08:39:30;;;;;;;21.15;16.67;;;;;;;26.23;66.45;99056.78;5102533;28;20035;-73
2022/08/15 08:42:02;;;;;;;18.10;9.35;;;;;;;26.22;65.77;99047.84;5103034;28;20091;-73
2022/08/15 08:44:53;;;;;;;11.77;10.52;;;;;;;26.18;66.63;99063.06;5102665;28;20203;-73
2022/08/15 08:47:27;;;;;;;10.48;9.35;;;;;;;26.28;67.75;99059.47;5101819;28;20040;-73
2022/08/15 08:50:27;;;;;;;16.75;12.60;;;;;;;26.15;67.50;99057.38;5102141;28;20028;-73
2022/08/15 08:53:01;;;;;;;12.52;10.05;;;;;;;26.06;67.09;99055.25;5101578;28;20043;-73
2022/08/15 08:55:39;;;;;;;14.48;12.48;;;;;;;26.00;67.99;99050.09;5101131;28;20081;-73
2022/08/15 08:58:10;;;;;;;17.70;11.35;;;;;;;26.15;66.52;99044.63;5102785;28;20121;-73
2022/08/15 09:00:48;;;;;;;12.70;9.30;;;;;;;26.20;68.52;99044.59;5102376;28;20032;-73
2022/08/15 09:03:22;;;;;;;15.95;11.68;;;;;;;26.06;68.71;99038.97;5102208;28;20048;-73
2022/08/15 09:05:53;;;;;;;30.48;16.13;;;;;;;26.07;68.12;99040.59;5102019;28;20032;-73
2022/08/15 09:08:26;;;;;;;19.10;13.75;;;;;;;25.92;66.97;99050.69;5102065;28;20217;-72
2022/08/15 09:10:58;;;;;;;22.25;16.13;;;;;;;25.96;68.41;99049.06;5101642;28;20058;-73
2022/08/15 09:13:34;;;;;;;19.05;14.40;;;;;;;26.31;68.62;99048.06;5099858;28;20043;-73
2022/08/15 09:16:17;;;;;;;14.40;10.73;;;;;;;26.91;68.73;99038.63;5100711;28;20039;-73
2022/08/15 09:19:07;;;;;;;10.23;8.85;;;;;;;27.22;65.73;99041.91;5102261;28;20090;-73
2022/08/15 09:21:33;;;;;;;17.95;13.98;;;;;;;27.52;64.00;99043.47;5090442;28;20261;-73
2022/08/15 09:23:59;;;;;;;15.68;12.73;;;;;;;27.43;62.55;99042.50;5102228;28;20031;-73
2022/08/15 09:26:25;;;;;;;15.13;11.50;;;;;;;27.63;61.52;99038.75;5101858;28;20036;-73
2022/08/15 09:29:29;;;;;;;14.75;8.85;;;;;;;27.86;61.69;99040.63;5117798;28;20065;-73
2022/08/15 09:32:27;;;;;;;12.00;10.32;;;;;;;27.89;60.96;99040.06;5102382;28;20198;-73
2022/08/15 09:35:37;;;;;;;15.43;11.52;;;;;;;27.79;60.14;99032.03;5101285;28;20035;-73
2022/08/15 09:38:33;;;;;;;13.23;11.02;;;;;;;27.77;58.07;99038.84;5078288;28;20039;-73
2022/08/15 09:41:39;;;;;;;10.95;9.05;;;;;;;27.80;59.86;99035.56;5101978;28;20308;-73
2022/08/15 09:44:38;;;;;;;10.98;8.48;;;;;;;27.90;59.59;99032.69;5101114;28;20059;-73
2022/08/15 09:47:22;;;;;;;17.50;10.80;;;;;;;27.86;58.10;99039.81;5100446;28;20051;-73
2022/08/15 09:49:57;;;;;;;;;;;;;;;27.95;56.89;99029.91;5102176;28;20321;-73
2022/08/15 09:52:30;;;;;;;10.60;9.50;;;;;;;27.86;58.26;99027.03;5101211;28;20113;-73
2022/08/15 09:55:08;;;;;;;11.27;10.07;;;;;;;27.86;57.21;99029.75;5100396;28;20224;-73
2022/08/15 09:57:40;;;;;;;11.57;8.77;;;;;;;28.15;57.72;99028.84;5100593;28;20055;-73
2022/08/15 10:00:17;;;;;;;11.57;9.20;;;;;;;28.24;59.39;99019.75;5101167;28;20056;-73
2022/08/15 10:02:46;;;;;;;13.13;8.90;;;;;;;28.10;57.48;99026.19;5117273;28;20217;-73
2022/08/15 10:05:41;;;;;;;9.82;7.93;;;;;;;28.25;55.01;99024.09;5093284;28;20081;-73
2022/08/15 10:08:12;;;;;;;10.25;8.75;;;;;;;28.16;56.04;99016.84;5094511;28;20042;-73
2022/08/15 10:10:41;;;;;;;13.95;10.07;;;;;;;28.21;59.51;99016.78;5092982;28;20032;-73
2022/08/15 10:13:06;;;;;;;10.13;8.30;;;;;;;28.40;57.65;99022.22;5094186;28;20083;-73
2022/08/15 10:15:43;;;;;;;14.13;9.15;;;;;;;28.49;56.87;99020.44;5095450;28;20020;-73
2022/08/15 10:18:26;;;;;;;12.00;9.10;;;;;;;28.48;55.29;99021.56;5094025;28;20042;-73
2022/08/15 10:20:55;;;;;;;12.03;8.40;;;;;;;28.30;54.88;99017.75;5109955;28;20078;-73
2022/08/15 10:23:31;;;;;;;11.18;9.50;;;;;;;28.12;55.62;99016.63;5096419;28;20031;-73
2022/08/15 10:26:21;;;;;;;13.57;10.30;;;;;;;28.03;56.54;99018.38;5095709;28;20040;-73
2022/08/15 10:29:16;;;;;;;9.60;8.52;;;;;;;28.09;54.83;99017.22;5094563;28;20047;-73
2022/08/15 10:31:51;;;;;;;12.95;10.13;;;;;;;28.28;57.08;99012.59;5094783;28;20028;-73
2022/08/15 10:34:37;;;;;;;11.75;8.95;;;;;;;28.47;54.99;99011.75;5093395;28;20215;-73
2022/08/15 10:37:15;;;;;;;10.35;8.90;;;;;;;28.59;56.56;99006.66;5092401;28;20097;-73
2022/08/15 10:39:46;;;;;;;11.27;10.07;;;;;;;28.57;54.47;99008.88;5093793;28;20310;-73
2022/08/15 10:42:58;;;;;;;10.90;9.40;;;;;;;28.52;55.40;99011.69;5095591;28;20024;-73
2022/08/15 10:45:27;;;;;;;11.38;8.98;;;;;;;28.60;56.25;99011.00;5073183;28;20046;-73
2022/08/15 10:47:54;;;;;;;11.82;9.02;;;;;;;28.63;51.79;99006.88;5094423;28;20217;-73
2022/08/15 10:50:30;;;;;;;18.42;13.18;;;;;;;28.70;53.73;99001.84;5094419;28;20051;-73
2022/08/15 10:53:23;;;;;;;9.45;8.45;;;;;;;28.64;54.02;99003.03;5093093;28;20077;-73
2022/08/15 10:55:49;;;;;;;12.43;8.95;;;;;;;28.93;51.81;99001.72;5092000;28;20462;-73
2022/08/15 10:58:20;;;;;;;11.00;8.10;;;;;;;28.82;50.52;99002.19;5095815;28;20245;-73
2022/08/15 11:01:04;;;;;;;9.25;8.10;;;;;;;29.02;50.64;99004.56;5093381;28;20042;-73
2022/08/15 11:03:40;;;;;;;9.95;8.52;;;;;;;28.90;50.54;98996.88;5095433;28;20048;-73
2022/08/15 11:06:12;;;;;;;13.00;11.45;;;;;;;28.76;49.40;98998.72;5093278;28;20028;-73
2022/08/15 11:08:54;;;;;;;8.40;7.20;;;;;;;28.96;46.62;98994.06;5092803;28;20039;-73
2022/08/15 11:11:24;;;;;;;18.30;10.32;;;;;;;28.90;46.66;98987.91;5097957;28;20034;-73
2022/08/15 11:13:53;;;;;;;12.13;8.70;;;;;;;28.82;46.03;98996.72;5098705;28;20114;-73
2022/08/15 11:16:28;;;;;;;6.90;6.20;;;;;;;28.93;43.41;98990.81;5097715;28;20032;-73
2022/08/15 11:18:56;;;;;;;9.90;8.73;;;;;;;28.87;43.91;98980.31;5099173;28;20373;-73
2022/08/15 11:21:30;;;;;;;13.27;8.98;;;;;;;28.92;45.73;98977.50;5096204;28;20058;-73
2022/08/15 11:24:01;;;;;;;10.63;8.73;;;;;;;28.90;45.79;98977.81;5097979;28;20278;-73
2022/08/15 11:26:30;;;;;;;9.40;8.30;;;;;;;29.02;46.84;98974.59;5099672;28;20048;-73
2022/08/15 11:29:10;;;;;;;12.32;10.02;;;;;;;29.14;47.06;98968.66;5097118;28;20207;-73
2022/08/15 11:31:59;;;;;;;8.90;7.53;;;;;;;29.10;43.92;98973.06;5096213;28;20054;-73
2022/08/15 11:34:46;;;;;;;13.40;7.97;;;;;;;29.25;44.99;98972.81;5089862;28;20273;-73
2022/08/15 11:37:20;;;;;;;8.88;7.97;;;;;;;29.23;44.02;98967.66;5097494;28;20034;-73
2022/08/15 11:40:06;;;;;;;12.13;10.65;;;;;;;29.27;46.65;98962.41;5099184;28;20043;-73
2022/08/15 11:42:40;;;;;;;10.23;7.97;;;;;;;29.36;45.74;98957.03;5096672;28;20092;-73
2022/08/15 11:45:11;;;;;;;;;;;;;;;29.36;42.17;98955.13;5097834;28;20260;-72
2022/08/15 11:47:44;;;;;;;6.68;5.97;;;;;;;28.70;42.09;98849.31;5096839;28;19912;-73
2022/08/15 11:50:37;;;;;;;12.02;7.68;;;;;;;29.37;43.03;98947.75;5098600;28;20253;-73
2022/08/15 12:14:04;;;;;;;9.95;7.50;;;;;;;29.28;41.38;98941.41;5158830;27;20726;-69